createdAt,value
2016-04-20T08:27:44.453Z,27.82
2016-04-20T08:28:44.769Z,27.87
2016-04-20T08:29:44.771Z,27.88
2016-04-20T08:30:44.774Z,27.85
2016-04-20T08:31:44.777Z,27.97
2016-04-20T08:32:44.794Z,27.84
2016-04-20T08:33:45.141Z,27.88
2016-04-20T08:34:45.082Z,27.85
2016-04-20T08:35:44.818Z,27.92
2016-04-20T08:36:44.821Z,27.84
2016-04-20T08:37:44.824Z,27.85
2016-04-20T08:38:44.842Z,27.94
2016-04-20T08:39:44.845Z,27.87
2016-04-20T08:40:44.848Z,27.75
2016-04-20T08:41:44.882Z,27.82
2016-04-20T08:42:44.868Z,27.84
2016-04-20T08:43:44.887Z,27.74
2016-04-20T08:44:44.890Z,27.74
2016-04-20T08:45:44.909Z,27.77
2016-04-20T08:46:44.895Z,27.72
2016-04-20T08:47:44.929Z,27.77
2016-04-20T08:48:44.917Z,27.78
2016-04-20T08:49:45.154Z,27.77
2016-04-20T08:50:44.953Z,27.67
2016-04-20T08:51:44.956Z,27.7
2016-04-20T08:52:44.942Z,27.7
2016-04-20T08:53:44.961Z,27.69
2016-04-20T08:54:44.964Z,27.5
2016-04-20T08:55:44.981Z,27.54
2016-04-20T08:56:44.984Z,27.55
2016-04-20T08:57:45.002Z,27.47
2016-04-20T08:58:44.990Z,27.55
2016-04-20T08:59:44.992Z,27.54
2016-04-20T09:00:45.011Z,27.43
2016-04-20T09:01:45.014Z,27.57
2016-04-20T09:02:45.016Z,27.54
2016-04-20T09:03:45.050Z,27.51
2016-04-20T09:04:45.271Z,27.63
2016-04-20T09:05:45.055Z,27.66
2016-04-20T09:06:45.057Z,27.67
2016-04-20T09:07:45.061Z,27.62
2016-04-20T09:08:45.079Z,27.55
2016-04-20T09:09:45.082Z,27.6
2016-04-20T09:10:45.116Z,27.51
2016-04-20T09:11:45.104Z,27.55
2016-04-20T09:12:45.090Z,27.54
2016-04-20T09:13:45.109Z,27.49
2016-04-20T09:14:45.127Z,27.39
2016-04-20T09:15:45.145Z,27.39
2016-04-20T09:16:45.132Z,27.43
2016-04-20T09:17:45.150Z,27.37
2016-04-20T09:18:45.153Z,27.41
2016-04-20T09:19:45.375Z,27.43
2016-04-20T09:20:45.174Z,27.44
2016-04-20T09:21:45.176Z,27.46
2016-04-20T09:22:45.194Z,27.39
2016-04-20T09:23:45.197Z,27.39
2016-04-20T09:24:45.200Z,27.43
2016-04-20T09:25:45.202Z,27.4
2016-04-20T09:26:45.221Z,27.32
2016-04-20T09:27:45.223Z,27.31
2016-04-20T09:28:46.148Z,27.31
2016-04-20T09:29:45.244Z,27.32
2016-04-20T09:30:45.247Z,27.31
2016-04-20T09:31:45.265Z,27.25
2016-04-20T09:32:45.268Z,27.28
2016-04-20T09:33:45.286Z,27.27
2016-04-20T09:34:45.273Z,27.32
2016-04-20T09:35:45.307Z,27.4
2016-04-20T09:36:45.294Z,27.34
2016-04-20T09:37:45.312Z,27.31
2016-04-20T09:38:45.299Z,27.39
2016-04-20T09:39:45.334Z,27.24
2016-04-20T09:40:45.320Z,27.29
2016-04-20T09:41:45.339Z,27.28
2016-04-20T09:42:45.342Z,27.22
2016-04-20T09:43:45.359Z,27.21
2016-04-20T09:44:45.347Z,27.36
2016-04-20T09:45:45.364Z,27.41
2016-04-20T09:46:45.367Z,27.34
2016-04-20T09:47:45.370Z,27.37
2016-04-20T09:48:45.405Z,27.31
2016-04-20T09:49:45.408Z,27.41
2016-04-20T09:50:45.410Z,27.34
2016-04-20T09:51:45.413Z,27.29
2016-04-20T09:52:45.430Z,27.29
2016-04-20T09:53:45.433Z,27.29
2016-04-20T09:54:45.436Z,27.25
2016-04-20T09:55:45.439Z,27.31
2016-04-20T09:56:45.457Z,27.24
2016-04-20T09:57:45.460Z,27.24
2016-04-20T09:58:45.463Z,27.24
2016-04-20T09:59:45.481Z,27.19
2016-04-20T10:00:45.484Z,27.21
2016-04-20T10:01:45.486Z,27.25
2016-04-20T10:02:45.504Z,27.28
2016-04-20T10:03:45.507Z,27.19
2016-04-20T10:04:45.509Z,27.27
2016-04-20T10:05:45.512Z,27.17
2016-04-20T10:06:45.531Z,27.24
2016-04-20T10:07:45.548Z,27.09
2016-04-20T10:08:45.551Z,27.12
2016-04-20T10:09:45.554Z,27.22
2016-04-20T10:10:45.573Z,27.12
2016-04-20T10:11:45.560Z,27.14
2016-04-20T10:12:45.578Z,27.12
2016-04-20T10:13:45.581Z,27.19
2016-04-20T10:14:45.584Z,27.19
2016-04-20T10:15:45.603Z,27.14
2016-04-20T10:16:45.620Z,27.14
2016-04-20T10:17:45.623Z,27.34
2016-04-20T10:18:45.626Z,26.5
2016-04-20T10:19:45.628Z,26.12
2016-04-20T10:20:45.631Z,26.44
2016-04-20T10:21:45.650Z,26.73
2016-04-20T10:22:45.652Z,26.4
2016-04-20T10:23:45.655Z,26.57
2016-04-20T10:24:45.658Z,26.54
2016-04-20T10:25:45.660Z,25.67
2016-04-20T10:26:45.663Z,26.47
2016-04-20T10:27:45.665Z,25.85
2016-04-20T10:28:45.684Z,24.57
2016-04-20T10:29:45.687Z,23.9
2016-04-20T10:30:45.690Z,23.95
2016-04-20T10:31:45.692Z,23.5
2016-04-20T10:32:45.695Z,23.54
2016-04-20T10:33:45.729Z,24.39
2016-04-20T10:34:45.716Z,25.38
2016-04-20T10:35:45.719Z,25.87
2016-04-20T10:36:45.706Z,26.18
2016-04-20T10:37:47.317Z,26.29
2016-04-20T10:38:45.726Z,25.39
2016-04-20T10:39:45.729Z,24.84
2016-04-20T10:40:45.731Z,24.78
2016-04-20T10:41:45.735Z,24.83
2016-04-20T10:42:45.737Z,25.05
2016-04-20T10:43:45.740Z,25.2
2016-04-20T10:44:45.742Z,25.62
2016-04-20T10:45:45.745Z,24.64
2016-04-20T10:46:45.748Z,25.09
2016-04-20T10:47:45.751Z,25.25
2016-04-20T10:48:45.753Z,24.99
2016-04-20T10:49:45.756Z,24.9
2016-04-20T10:50:45.774Z,25.33
2016-04-20T10:51:45.761Z,25.32
2016-04-20T10:52:45.764Z,25.47
2016-04-20T10:53:45.766Z,25.6
2016-04-20T10:54:45.769Z,25.9
2016-04-20T10:55:45.788Z,25.1
2016-04-20T10:56:45.791Z,24.93
2016-04-20T10:57:45.808Z,25.55
2016-04-20T10:58:45.811Z,25.57
2016-04-20T10:59:45.798Z,25.73
2016-04-20T11:00:45.816Z,25.45
2016-04-20T11:01:45.804Z,24.9
2016-04-20T11:02:45.822Z,24.69
2016-04-20T11:03:45.810Z,24.77
2016-04-20T11:04:45.859Z,25.2
2016-04-20T11:05:45.830Z,24.71
2016-04-20T11:06:45.832Z,24.65
2016-04-20T11:07:45.835Z,24.49
2016-04-20T11:08:45.838Z,24.69
2016-04-20T11:09:45.826Z,24.45
2016-04-20T11:10:45.828Z,24.28
2016-04-20T11:11:45.846Z,24.27
2016-04-20T11:12:45.849Z,24.12
2016-04-20T11:13:45.852Z,24.16
2016-04-20T11:14:45.854Z,24.27
2016-04-20T11:15:45.857Z,24.53
2016-04-20T11:16:45.875Z,24.5
2016-04-20T11:17:45.862Z,25.2
2016-04-20T11:18:45.865Z,25
2016-04-20T11:19:45.868Z,25.5
2016-04-20T11:20:45.871Z,25.27
2016-04-20T11:21:45.873Z,23.93
2016-04-20T11:22:45.876Z,24.31
2016-04-20T11:23:46.175Z,24.1
2016-04-20T11:24:45.881Z,23.93
2016-04-20T11:25:45.884Z,23.69
2016-04-20T11:26:45.902Z,24.24
2016-04-20T11:27:45.905Z,24.87
2016-04-20T11:28:45.907Z,24.93
2016-04-20T11:29:45.894Z,25.09
2016-04-20T11:30:45.913Z,24.57
2016-04-20T11:31:45.900Z,24.85
2016-04-20T11:32:45.919Z,24.77
2016-04-20T11:33:45.922Z,25.27
2016-04-20T11:34:45.908Z,25.33
2016-04-20T11:35:45.911Z,24.93
2016-04-20T11:36:45.929Z,24.65
2016-04-20T11:37:45.932Z,24.76
2016-04-20T11:38:45.919Z,25.23
2016-04-20T11:39:45.922Z,25.85
2016-04-20T11:40:45.924Z,25.2
2016-04-20T11:41:45.943Z,25.08
2016-04-20T11:42:45.945Z,25.25
2016-04-20T11:43:45.932Z,25.05
2016-04-20T11:44:45.950Z,24.52
2016-04-20T11:45:45.938Z,24.62
2016-04-20T11:46:45.956Z,24.88
2016-04-20T11:47:45.942Z,24.95
2016-04-20T11:48:45.962Z,25.21
2016-04-20T11:49:45.964Z,24.58
2016-04-20T11:50:45.967Z,24.05
2016-04-20T11:51:45.954Z,24.22
2016-04-20T11:52:45.972Z,24.78
2016-04-20T11:53:45.975Z,25.09
2016-04-20T11:54:45.994Z,24.84
2016-04-20T11:55:45.980Z,24.09
2016-04-20T11:56:45.983Z,24.1
2016-04-20T11:57:45.985Z,24.03
2016-04-20T11:58:45.988Z,24.12
2016-04-20T11:59:45.976Z,23.69
2016-04-20T12:00:45.994Z,23.68
2016-04-20T12:01:45.981Z,24.1
2016-04-20T12:02:45.999Z,24.88
2016-04-20T12:03:45.985Z,25.1
2016-04-20T12:04:45.988Z,25.17
2016-04-20T12:05:45.899Z,24.98
2016-04-20T12:06:46.010Z,25.5
2016-04-20T12:07:46.013Z,25.85
2016-04-20T12:08:46.015Z,25.38
2016-04-20T12:09:46.018Z,25.06
2016-04-20T12:10:46.020Z,25.25
2016-04-20T12:11:46.039Z,25.61
2016-04-20T12:12:46.027Z,26.13
2016-04-20T12:13:46.029Z,24.83
2016-04-20T12:14:46.016Z,24.81
2016-04-20T12:15:46.034Z,25.05
2016-04-20T12:16:46.036Z,24.96
2016-04-20T12:17:46.040Z,24.53
2016-04-20T12:18:46.043Z,25.03
2016-04-20T12:19:46.045Z,25.09
2016-04-20T12:20:46.079Z,25.33
2016-04-20T12:21:46.050Z,25.4
2016-04-20T12:22:46.053Z,25.4
2016-04-20T12:23:46.056Z,25.38
2016-04-20T12:24:46.058Z,25.38
2016-04-20T12:25:46.342Z,25.14
2016-04-20T12:26:46.063Z,24.99
2016-04-20T12:27:46.066Z,24.68
2016-04-20T12:28:46.085Z,24.62
2016-04-20T12:29:46.072Z,24.64
2016-04-20T12:30:46.090Z,24.84
2016-04-20T12:31:46.078Z,25.17
2016-04-20T12:32:46.095Z,25.14
2016-04-20T12:33:46.098Z,25.09
2016-04-20T12:34:46.085Z,25.33
2016-04-20T12:35:46.151Z,25.35
2016-04-20T12:36:46.107Z,25.67
2016-04-20T12:37:46.110Z,25.82
2016-04-20T12:38:46.112Z,25.76
2016-04-20T12:39:46.115Z,26.18
2016-04-20T12:40:46.118Z,26.13
2016-04-20T12:41:46.121Z,26.44
2016-04-20T12:42:46.123Z,26.6
2016-04-20T12:43:46.125Z,26.73
2016-04-20T12:44:46.143Z,26.6
2016-04-20T12:45:46.162Z,26.47
2016-04-20T12:46:46.149Z,26.36
2016-04-20T12:47:46.152Z,26.75
2016-04-20T12:48:46.154Z,25.97
2016-04-20T12:49:46.157Z,26.37
2016-04-20T12:50:46.237Z,26.13
2016-04-20T12:51:46.162Z,26.06
2016-04-20T12:52:46.165Z,26.1
2016-04-20T12:53:46.167Z,25.83
2016-04-20T12:54:46.170Z,25.76
2016-04-20T12:55:46.189Z,25.73
2016-04-20T12:56:46.192Z,26.09
2016-04-20T12:57:46.194Z,26.52
2016-04-20T12:58:46.197Z,25.76
2016-04-20T12:59:46.200Z,25.58
2016-04-20T13:00:46.186Z,25.52
2016-04-20T13:01:46.063Z,25.83
2016-04-20T13:02:46.207Z,25.87
2016-04-20T13:03:46.242Z,24.22
2016-04-20T13:04:46.244Z,24.21
2016-04-20T13:05:46.278Z,25.15
2016-04-20T13:06:46.234Z,25.57
2016-04-20T13:07:46.237Z,25.65
2016-04-20T13:08:46.240Z,25.7
2016-04-20T13:09:46.243Z,25.85
2016-04-20T13:10:46.260Z,25.05
2016-04-20T13:11:46.247Z,25.54
2016-04-20T13:12:46.250Z,25.67
2016-04-20T13:13:46.237Z,26.21
2016-04-20T13:14:46.256Z,26.29
2016-04-20T13:15:46.259Z,26.17
2016-04-20T13:16:46.261Z,26.54
2016-04-20T13:17:46.264Z,25.09
2016-04-20T13:18:46.282Z,24.84
2016-04-20T13:19:46.284Z,24.12
2016-04-20T13:20:46.022Z,24.09
2016-04-20T13:21:46.275Z,23.83
2016-04-20T13:22:46.277Z,24
2016-04-20T13:23:46.280Z,24.47
2016-04-20T13:24:46.282Z,25
2016-04-20T13:25:46.285Z,23.98
2016-04-20T13:26:46.288Z,23.88
2016-04-20T13:27:46.291Z,24.03
2016-04-20T13:28:46.294Z,24.15
2016-04-20T13:29:46.296Z,23.69
2016-04-20T13:30:46.299Z,23.36
2016-04-20T13:31:46.316Z,23.42
2016-04-20T13:32:46.305Z,24.46
2016-04-20T13:33:46.322Z,25.25
2016-04-20T13:34:46.310Z,24.32
2016-04-20T13:35:46.343Z,24.52
2016-04-20T13:36:46.315Z,24
2016-04-20T13:37:46.317Z,23.69
2016-04-20T13:38:46.321Z,24.87
2016-04-20T13:39:46.307Z,25.69
2016-04-20T13:40:46.310Z,25.87
2016-04-20T13:41:46.313Z,25.8
2016-04-20T13:42:46.331Z,25.08
2016-04-20T13:43:46.333Z,25.05
2016-04-20T13:44:46.337Z,24.61
2016-04-20T13:45:46.339Z,24.32
2016-04-20T13:46:46.342Z,24.34
2016-04-20T13:47:46.328Z,24.68
2016-04-20T13:48:46.332Z,25.25
2016-04-20T13:49:46.334Z,25.21
2016-04-20T13:50:46.353Z,25.38
2016-04-20T13:51:46.339Z,24.98
2016-04-20T13:52:46.343Z,25.42
2016-04-20T13:53:46.345Z,25.47
2016-04-20T13:54:46.363Z,25.46
2016-04-20T13:55:46.194Z,25.62
2016-04-20T13:56:46.197Z,25.9
2016-04-20T13:57:46.355Z,25.72
2016-04-20T13:58:46.375Z,25.55
2016-04-20T13:59:46.377Z,25.9
2016-04-20T14:00:46.364Z,24.65
2016-04-20T14:01:46.367Z,24.57
2016-04-20T14:02:46.385Z,24.96
2016-04-20T14:03:46.388Z,25.58
2016-04-20T14:04:46.374Z,25.09
2016-04-20T14:05:46.377Z,24.34
2016-04-20T14:06:46.410Z,24.06
2016-04-20T14:07:46.383Z,24.22
2016-04-20T14:08:46.385Z,24.73
2016-04-20T14:09:46.404Z,24.4
2016-04-20T14:10:46.250Z,23.91
2016-04-20T14:11:46.393Z,23.95
2016-04-20T14:12:46.396Z,24.84
2016-04-20T14:13:46.399Z,24.95
2016-04-20T14:14:46.402Z,24.43
2016-04-20T14:15:46.404Z,24.37
2016-04-20T14:16:46.406Z,25.14
2016-04-20T14:17:46.425Z,25.45
2016-04-20T14:18:46.412Z,25.62
2016-04-20T14:19:46.431Z,24.83
2016-04-20T14:20:46.434Z,24.39
2016-04-20T14:21:46.279Z,23.9
2016-04-20T14:22:46.440Z,24.22
2016-04-20T14:23:46.426Z,24.2
2016-04-20T14:24:46.429Z,23.88
2016-04-20T14:25:46.432Z,24.22
2016-04-20T14:26:46.497Z,24.08
2016-04-20T14:27:46.437Z,23.73
2016-04-20T14:28:46.440Z,23.72
2016-04-20T14:29:46.443Z,23.94
2016-04-20T14:30:46.446Z,23.2
2016-04-20T14:31:46.448Z,23.36
2016-04-20T14:32:46.497Z,23.94
2016-04-20T14:33:46.453Z,24.03
2016-04-20T14:34:46.456Z,23.95
2016-04-20T14:35:46.475Z,23.61
2016-04-20T14:36:46.461Z,23.58
2016-04-20T14:37:46.464Z,23.84
2016-04-20T14:38:46.483Z,23.78
2016-04-20T14:39:46.486Z,23.84
2016-04-20T14:40:46.488Z,23.68
2016-04-20T14:41:46.506Z,23.79
2016-04-20T14:42:46.509Z,23.65
2016-04-20T14:43:46.480Z,23.15
2016-04-20T14:44:46.499Z,23.9
2016-04-20T14:45:46.486Z,24.32
2016-04-20T14:46:48.973Z,24.55
2016-04-20T14:47:46.507Z,24.71
2016-04-20T14:48:46.494Z,24.06
2016-04-20T14:49:46.497Z,24.42
2016-04-20T14:50:46.499Z,25.54
2016-04-20T14:51:46.502Z,25.47
2016-04-20T14:52:46.504Z,25.6
2016-04-20T14:53:46.507Z,25.54
2016-04-20T14:54:46.510Z,25.5
2016-04-20T14:55:46.529Z,25.36
2016-04-20T14:56:46.515Z,25.23
2016-04-20T14:57:46.518Z,25.45
2016-04-20T14:58:46.521Z,25.57
2016-04-20T14:59:46.524Z,24.8
2016-04-20T15:00:46.526Z,25.09
2016-04-20T15:01:46.545Z,25
2016-04-20T15:02:46.531Z,25.15
2016-04-20T15:03:46.550Z,24.8
2016-04-20T15:04:46.552Z,24.06
2016-04-20T15:05:46.555Z,24.65
2016-04-20T15:06:46.542Z,25.43
2016-04-20T15:07:46.545Z,25.67
2016-04-20T15:08:46.564Z,25.64
2016-04-20T15:09:46.582Z,25.72
2016-04-20T15:10:46.584Z,25.67
2016-04-20T15:11:46.556Z,25.64
2016-04-20T15:12:46.589Z,24.84
2016-04-20T15:13:46.577Z,25.2
2016-04-20T15:14:46.579Z,25.45
2016-04-20T15:15:46.597Z,25.57
2016-04-20T15:16:46.585Z,25.73
2016-04-20T15:17:46.587Z,25.7
2016-04-20T15:18:46.605Z,26.12
2016-04-20T15:19:46.593Z,26.05
2016-04-20T15:20:46.596Z,26.06
2016-04-20T15:21:46.598Z,26.28
2016-04-20T15:22:46.585Z,25.67
2016-04-20T15:23:46.604Z,25
2016-04-20T15:24:46.621Z,25.28
2016-04-20T15:25:46.609Z,25.69
2016-04-20T15:26:46.612Z,25.55
2016-04-20T15:27:46.614Z,25.83
2016-04-20T15:28:46.633Z,25.92
2016-04-20T15:29:46.620Z,25.2
2016-04-20T15:30:46.623Z,25.02
2016-04-20T15:31:46.625Z,25.57
2016-04-20T15:32:46.628Z,25.45
2016-04-20T15:33:46.631Z,25.27
2016-04-20T15:34:46.633Z,25.09
2016-04-20T15:35:46.636Z,25.15
2016-04-20T15:36:46.642Z,25.45
2016-04-20T15:37:46.645Z,25.45
2016-04-20T15:38:46.648Z,25.72
2016-04-20T15:39:46.650Z,25.77
2016-04-20T15:40:46.670Z,25.9
2016-04-20T15:41:46.656Z,25.87
2016-04-20T15:42:46.675Z,25.8
2016-04-20T15:43:46.662Z,26.3
2016-04-20T15:44:46.665Z,25.87
2016-04-20T15:45:46.667Z,25.97
2016-04-20T15:46:46.670Z,25.88
2016-04-20T15:47:46.673Z,25.97
2016-04-20T15:48:46.676Z,26.33
2016-04-20T15:49:46.694Z,25.83
2016-04-20T15:50:46.697Z,26.26
2016-04-20T15:51:46.855Z,26.13
2016-04-20T15:52:46.702Z,26.25
2016-04-20T15:53:46.705Z,25.75
2016-04-20T15:54:46.551Z,26.01
2016-04-20T15:55:46.710Z,26.02
2016-04-20T15:56:46.712Z,25.9
2016-04-20T15:57:46.715Z,25.72
2016-04-20T15:58:46.786Z,25.85
2016-04-20T15:59:46.815Z,26.15
2016-04-20T16:00:46.860Z,26.1
2016-04-20T16:01:46.904Z,25.88
2016-04-20T16:02:46.828Z,25.75
2016-04-20T16:03:46.817Z,25.76
2016-04-20T16:04:47.170Z,25.76
2016-04-20T16:06:49.645Z,25.7
2016-04-20T16:07:02.363Z,25.47
2016-04-20T16:08:02.347Z,25.47
2016-04-20T16:09:02.371Z,25.7
2016-04-20T16:10:02.364Z,25.57
2016-04-20T16:11:02.371Z,25.36
2016-04-20T16:12:02.364Z,25
2016-04-20T16:13:02.386Z,25.5
2016-04-20T16:14:02.391Z,25.23
2016-04-20T16:15:02.396Z,25.17
2016-04-20T16:16:02.417Z,25.28
2016-04-20T16:17:02.420Z,25.27
2016-04-20T16:18:02.425Z,25.64
2016-04-20T16:19:02.413Z,25.88
2016-04-20T16:20:02.432Z,25.54
2016-04-20T16:21:02.420Z,25.57
2016-04-20T16:22:02.423Z,25.55
2016-04-20T16:23:02.427Z,25.67
2016-04-20T16:24:02.429Z,25.73
2016-04-20T16:25:02.448Z,26.01
2016-04-20T16:26:02.451Z,25.51
2016-04-20T16:27:02.454Z,25.72
2016-04-20T16:28:02.457Z,25.2
2016-04-20T16:29:02.460Z,25.62
2016-04-20T16:30:02.463Z,26.12
2016-04-20T16:31:02.466Z,25.51
2016-04-20T16:32:02.468Z,25.51
2016-04-20T16:33:02.455Z,25.76
2016-04-20T16:34:02.457Z,25.88
2016-04-20T16:35:02.460Z,26.06
2016-04-20T16:36:02.494Z,25.39
2016-04-20T16:37:02.465Z,25.65
2016-04-20T16:38:02.484Z,25.75
2016-04-20T16:39:02.502Z,25.4
2016-04-20T16:40:02.490Z,25.13
2016-04-20T16:41:02.492Z,25.76
2016-04-20T16:42:02.495Z,25.8
2016-04-20T16:43:02.529Z,25.97
2016-04-20T16:44:02.515Z,25.76
2016-04-20T16:45:02.518Z,25.45
2016-04-20T16:46:02.521Z,24.99
2016-04-20T16:47:02.523Z,25.3
2016-04-20T16:48:02.511Z,24.98
2016-04-20T16:49:02.529Z,24.9
2016-04-20T16:50:02.532Z,24.05
2016-04-20T16:51:02.379Z,24.08
2016-04-20T16:52:02.537Z,23.88
2016-04-20T16:53:02.572Z,24
2016-04-20T16:54:02.542Z,24
2016-04-20T16:55:02.530Z,23.69
2016-04-20T16:56:02.533Z,24.02
2016-04-20T16:57:02.550Z,24.03
2016-04-20T16:58:02.553Z,23.93
2016-04-20T16:59:02.572Z,24.39
2016-04-20T17:00:02.559Z,24.8
2016-04-20T17:01:02.561Z,25.02
2016-04-20T17:02:02.564Z,23.91
2016-04-20T17:03:02.566Z,23.8
2016-04-20T17:04:02.569Z,24.27
2016-04-20T17:05:02.588Z,24.08
2016-04-20T17:06:02.575Z,24.27
2016-04-20T17:07:02.577Z,25.21
2016-04-20T17:08:02.596Z,25.4
2016-04-20T17:09:02.583Z,25.5
2016-04-20T17:10:02.585Z,24.35
2016-04-20T17:11:02.588Z,24.43
2016-04-20T17:12:02.779Z,24.8
2016-04-20T17:13:02.594Z,24.83
2016-04-20T17:14:02.596Z,24.5
2016-04-20T17:15:02.615Z,24.64
2016-04-20T17:16:02.587Z,24.21
2016-04-20T17:17:02.605Z,24.16
2016-04-20T17:18:02.482Z,24.32
2016-04-20T17:19:02.641Z,23.76
2016-04-20T17:20:02.628Z,23.39
2016-04-20T17:21:02.631Z,23.76
2016-04-20T17:22:02.618Z,23.72
2016-04-20T17:23:02.621Z,23.84
2016-04-20T17:24:02.623Z,23.8
2016-04-20T17:25:02.626Z,23.61
2016-04-20T17:26:02.645Z,23.73
2016-04-20T17:27:02.631Z,24
2016-04-20T17:28:02.649Z,24.16
2016-04-20T17:29:02.652Z,24.58
2016-04-20T17:30:02.640Z,24.6
2016-04-20T17:31:02.642Z,24.76
2016-04-20T17:32:02.660Z,24.87
2016-04-20T17:33:02.664Z,25.02
2016-04-20T17:34:02.666Z,24.93
2016-04-20T17:35:02.669Z,24.5
2016-04-20T17:36:02.688Z,24.18
2016-04-20T17:37:02.721Z,24.18
2016-04-20T17:38:02.693Z,24.68
2016-04-20T17:39:02.679Z,24.58
2016-04-20T17:40:02.666Z,23.94
2016-04-20T17:41:02.669Z,23.97
2016-04-20T17:42:02.688Z,24.24
2016-04-20T17:43:02.707Z,24.2
2016-04-20T17:44:02.677Z,24.68
2016-04-20T17:45:02.696Z,24.5
2016-04-20T17:46:02.699Z,24.42
2016-04-20T17:47:02.701Z,24.31
2016-04-20T17:48:02.688Z,24.47
2016-04-20T17:49:02.706Z,24.06
2016-04-20T17:50:02.710Z,23.57
2016-04-20T17:51:02.696Z,23.38
2016-04-20T17:52:02.715Z,23.27
2016-04-20T17:53:02.592Z,23.63
2016-04-20T17:54:07.054Z,24.06
2016-04-20T17:55:02.729Z,24.31
2016-04-20T17:56:02.715Z,24.55
2016-04-20T17:57:02.749Z,24.77
2016-04-20T17:58:02.721Z,24.83
2016-04-20T17:59:02.723Z,24.95
2016-04-20T18:00:02.726Z,25
2016-04-20T18:01:01.978Z,25.06
2016-04-20T18:02:02.731Z,25.05
2016-04-20T18:03:02.750Z,25.2
2016-04-20T18:04:02.736Z,25.15
2016-04-20T18:05:02.771Z,25.14
2016-04-20T18:06:02.758Z,25.14
2016-04-20T18:07:02.618Z,25.27
2016-04-20T18:08:02.761Z,25.14
2016-04-20T18:09:02.765Z,25.24
2016-04-20T18:10:02.783Z,25.23
2016-04-20T18:11:02.785Z,25.25
2016-04-20T18:12:02.789Z,25.42
2016-04-20T18:13:02.806Z,25.38
2016-04-20T18:14:02.793Z,25.36
2016-04-20T18:15:02.796Z,25.35
2016-04-20T18:16:02.799Z,25.43
2016-04-20T18:17:02.805Z,25.5
2016-04-20T18:18:02.824Z,25.45
2016-04-20T18:19:02.826Z,25.52
2016-04-20T18:20:02.828Z,25.43
2016-04-20T18:21:02.832Z,25.52
2016-04-20T18:22:02.855Z,25.51
2016-04-20T18:23:02.842Z,25.58
2016-04-20T18:24:02.845Z,25.67
2016-04-20T18:25:02.863Z,25.73
2016-04-20T18:26:02.865Z,25.64
2016-04-20T18:27:02.869Z,25.61
2016-04-20T18:28:02.886Z,25.73
2016-04-20T18:29:02.889Z,25.76
2016-04-20T18:30:02.892Z,25.77
2016-04-20T18:31:02.910Z,25.77
2016-04-20T18:32:02.897Z,25.76
2016-04-20T18:33:02.900Z,25.75
2016-04-20T18:34:02.918Z,25.85
2016-04-20T18:35:02.921Z,25.8
2016-04-20T18:36:02.924Z,25.85
2016-04-20T18:37:02.942Z,25.87
2016-04-20T18:38:02.944Z,25.9
2016-04-20T18:39:02.947Z,25.85
2016-04-20T18:40:02.950Z,25.9
2016-04-20T18:41:02.953Z,25.91
2016-04-20T18:42:02.971Z,25.9
2016-04-20T18:43:02.974Z,25.91
2016-04-20T18:44:02.976Z,25.9
2016-04-20T18:45:02.979Z,25.92
2016-04-20T18:46:02.840Z,26.07
2016-04-20T18:47:02.876Z,25.99
2016-04-20T18:48:03.003Z,25.99
2016-04-20T18:49:03.021Z,26.07
2016-04-20T18:50:03.023Z,26.06
2016-04-20T18:51:03.026Z,26.12
2016-04-20T18:52:02.872Z,26.12
2016-04-20T18:53:03.048Z,26.2
2016-04-20T18:54:03.050Z,26.25
2016-04-20T18:55:03.053Z,26.26
2016-04-20T18:56:03.056Z,26.3
2016-04-20T18:57:03.074Z,26.3
2016-04-20T18:58:03.061Z,26.26
2016-04-20T18:59:03.080Z,26.15
2016-04-20T19:00:03.097Z,26.15
2016-04-20T19:01:03.086Z,26.2
2016-04-20T19:02:03.088Z,26.1
2016-04-20T19:03:03.105Z,26.18
2016-04-20T19:04:02.952Z,26.28
2016-04-20T19:05:03.127Z,26.4
2016-04-20T19:06:03.130Z,26.35
2016-04-20T19:07:03.008Z,26.4
2016-04-20T19:08:03.134Z,26.4
2016-04-20T19:09:03.137Z,26.44
2016-04-20T19:10:03.140Z,26.48
2016-04-20T19:11:03.158Z,26.5
2016-04-20T19:12:03.160Z,26.48
2016-04-20T19:13:03.164Z,26.48
2016-04-20T19:14:03.166Z,26.52
2016-04-20T19:15:03.185Z,26.52
2016-04-20T19:16:03.188Z,26.47
2016-04-20T19:17:03.190Z,26.54
2016-04-20T19:18:03.192Z,26.36
2016-04-20T19:19:03.211Z,26.37
2016-04-20T19:20:03.214Z,26.44
2016-04-20T19:21:03.217Z,26.57
2016-04-20T19:22:03.235Z,26.52
2016-04-20T19:23:03.237Z,26.4
2016-04-20T19:24:03.240Z,26.35
2016-04-20T19:25:03.242Z,26.3
2016-04-20T19:26:03.245Z,26.25
2016-04-20T19:27:03.264Z,26.25
2016-04-20T19:28:03.283Z,26.21
2016-04-20T19:29:03.269Z,26.23
2016-04-20T19:30:03.272Z,26.28
2016-04-20T19:31:03.291Z,26.28
2016-04-20T19:32:03.293Z,26.13
2016-04-20T19:33:03.297Z,26.07
2016-04-20T19:34:03.314Z,26.02
2016-04-20T19:35:03.301Z,26.13
2016-04-20T19:36:03.163Z,25.99
2016-04-20T19:37:03.322Z,26.02
2016-04-20T19:38:03.340Z,25.94
2016-04-20T19:39:03.344Z,25.83
2016-04-20T19:40:03.346Z,25.87
2016-04-20T19:41:03.364Z,25.82
2016-04-20T19:42:03.352Z,25.9
2016-04-20T19:43:03.369Z,25.88
2016-04-20T19:44:03.372Z,25.83
2016-04-20T19:45:03.374Z,25.82
2016-04-20T19:46:03.377Z,25.85
2016-04-20T19:47:03.380Z,25.8
2016-04-20T19:48:03.399Z,25.73
2016-04-20T19:49:03.401Z,25.73
2016-04-20T19:50:03.404Z,25.72
2016-04-20T19:51:03.407Z,25.73
2016-04-20T19:52:03.425Z,25.76
2016-04-20T19:53:03.428Z,25.69
2016-04-20T19:54:03.430Z,25.58
2016-04-20T19:55:03.433Z,25.55
2016-04-20T19:56:03.451Z,25.55
2016-04-20T19:57:03.470Z,25.58
2016-04-20T19:58:03.456Z,25.52
2016-04-20T19:59:03.475Z,25.52
2016-04-20T20:00:03.478Z,25.5
2016-04-20T20:01:03.481Z,25.46
2016-04-20T20:02:03.483Z,25.45
2016-04-20T20:03:03.486Z,25.4
2016-04-20T20:04:03.504Z,25.28
2016-04-20T20:05:03.508Z,25.32
2016-04-20T20:06:03.369Z,25.42
2016-04-20T20:07:03.528Z,25.32
2016-04-20T20:08:03.530Z,25.36
2016-04-20T20:09:03.533Z,25.36
2016-04-20T20:10:03.551Z,25.36
2016-04-20T20:11:03.538Z,25.39
2016-04-20T20:12:03.558Z,25.25
2016-04-20T20:13:03.574Z,25.23
2016-04-20T20:14:03.562Z,25.2
2016-04-20T20:15:03.580Z,25.24
2016-04-20T20:16:03.583Z,25.23
2016-04-20T20:17:03.602Z,25.13
2016-04-20T20:18:03.604Z,25.14
2016-04-20T20:19:03.607Z,25.13
2016-04-20T20:20:03.610Z,25.09
2016-04-20T20:21:03.612Z,25.08
2016-04-20T20:22:03.640Z,25.09
2016-04-20T20:23:03.636Z,25.13
2016-04-20T20:24:03.639Z,25.09
2016-04-20T20:25:03.656Z,25.1
2016-04-20T20:26:03.644Z,25.05
2016-04-20T20:27:03.880Z,24.93
2016-04-20T20:28:03.665Z,24.96
2016-04-20T20:29:03.699Z,24.96
2016-04-20T20:30:03.654Z,24.98
2016-04-20T20:31:03.673Z,24.99
2016-04-20T20:32:03.675Z,24.9
2016-04-20T20:33:03.678Z,24.88
2016-04-20T20:34:03.680Z,24.81
2016-04-20T20:35:03.699Z,24.91
2016-04-20T20:36:03.546Z,24.85
2016-04-20T20:37:03.704Z,24.96
2016-04-20T20:38:03.708Z,24.85
2016-04-20T20:39:03.710Z,24.71
2016-04-20T20:40:03.712Z,24.83
2016-04-20T20:41:03.731Z,24.76
2016-04-20T20:42:03.734Z,24.68
2016-04-20T20:43:03.767Z,24.77
2016-04-20T20:44:03.754Z,24.73
2016-04-20T20:45:03.757Z,24.64
2016-04-20T20:46:03.759Z,24.64
2016-04-20T20:47:03.779Z,24.78
2016-04-20T20:48:03.781Z,24.69
2016-04-20T20:49:03.767Z,24.71
2016-04-20T20:50:03.787Z,24.5
2016-04-20T20:51:03.836Z,24.64
2016-04-20T20:52:03.806Z,24.57
2016-04-20T20:53:03.794Z,24.55
2016-04-20T20:54:03.813Z,24.49
2016-04-20T20:55:03.815Z,24.53
2016-04-20T20:56:03.834Z,24.52
2016-04-20T20:57:03.836Z,24.52
2016-04-20T20:58:03.855Z,24.55
2016-04-20T20:59:03.841Z,24.45
2016-04-20T21:00:05.876Z,24.53
2016-04-20T21:01:03.847Z,24.5
2016-04-20T21:02:03.867Z,24.47
2016-04-20T21:03:03.869Z,24.47
2016-04-20T21:04:03.873Z,24.49
2016-04-20T21:05:03.875Z,24.42
2016-04-20T21:06:03.878Z,24.37
2016-04-20T21:07:03.895Z,24.34
2016-04-20T21:08:03.898Z,24.3
2016-04-20T21:09:03.916Z,24.35
2016-04-20T21:10:03.903Z,24.3
2016-04-20T21:11:03.173Z,24.2
2016-04-20T21:12:03.924Z,24.27
2016-04-20T21:13:03.927Z,24.25
2016-04-20T21:14:03.930Z,24.2
2016-04-20T21:15:03.933Z,24.21
2016-04-20T21:16:03.983Z,24.21
2016-04-20T21:17:03.797Z,24.21
2016-04-20T21:18:03.972Z,24.12
2016-04-20T21:19:03.959Z,24.12
2016-04-20T21:20:03.961Z,24.15
2016-04-20T21:21:03.980Z,24.15
2016-04-20T21:22:03.998Z,24.03
2016-04-20T21:23:03.985Z,23.97
2016-04-20T21:24:04.004Z,24.03
2016-04-20T21:25:04.007Z,24.03